sensor_id;sensor_type;location;lat;lon;timestamp;P1;durP1;ratioP1;P2;durP2;ratioP2
6937;SDS011;40040;42.706;23.372;2023-04-24T00:00:39;7.22;;;5.90;;
6937;SDS011;40040;42.706;23.372;2023-04-24T00:03:07;6.85;;;6.05;;
6937;SDS011;40040;42.706;23.372;2023-04-24T00:05:34;10.77;;;6.32;;
6937;SDS011;40040;42.706;23.372;2023-04-24T00:08:00;6.50;;;5.88;;
6937;SDS011;40040;42.706;23.372;2023-04-24T00:10:27;8.75;;;6.20;;
6937;SDS011;40040;42.706;23.372;2023-04-24T00:12:55;7.55;;;6.53;;
6937;SDS011;40040;42.706;23.372;2023-04-24T00:15:23;7.97;;;6.38;;
6937;SDS011;40040;42.706;23.372;2023-04-24T00:17:50;7.25;;;6.55;;
6937;SDS011;40040;42.706;23.372;2023-04-24T00:20:17;8.88;;;6.75;;
6937;SDS011;40040;42.706;23.372;2023-04-24T00:22:44;7.82;;;6.63;;
6937;SDS011;40040;42.706;23.372;2023-04-24T00:25:10;7.25;;;6.50;;
6937;SDS011;40040;42.706;23.372;2023-04-24T00:27:37;9.30;;;6.60;;
6937;SDS011;40040;42.706;23.372;2023-04-24T00:30:07;9.82;;;6.55;;
6937;SDS011;40040;42.706;23.372;2023-04-24T00:32:34;7.28;;;6.00;;
6937;SDS011;40040;42.706;23.372;2023-04-24T00:35:01;7.40;;;6.40;;
6937;SDS011;40040;42.706;23.372;2023-04-24T00:37:28;10.25;;;7.10;;
6937;SDS011;40040;42.706;23.372;2023-04-24T00:39:54;9.95;;;6.85;;
6937;SDS011;40040;42.706;23.372;2023-04-24T00:42:21;10.50;;;6.90;;
6937;SDS011;40040;42.706;23.372;2023-04-24T00:44:48;9.13;;;6.85;;
6937;SDS011;40040;42.706;23.372;2023-04-24T00:47:17;8.15;;;6.80;;
6937;SDS011;40040;42.706;23.372;2023-04-24T00:49:46;9.63;;;7.03;;
6937;SDS011;40040;42.706;23.372;2023-04-24T00:52:13;8.13;;;6.85;;
6937;SDS011;40040;42.706;23.372;2023-04-24T00:54:42;8.73;;;6.60;;
6937;SDS011;40040;42.706;23.372;2023-04-24T00:57:09;8.20;;;5.68;;
6937;SDS011;40040;42.706;23.372;2023-04-24T00:59:36;9.98;;;6.40;;
6937;SDS011;40040;42.706;23.372;2023-04-24T01:02:06;8.40;;;6.18;;
6937;SDS011;40040;42.706;23.372;2023-04-24T01:04:35;7.63;;;6.82;;
6937;SDS011;40040;42.706;23.372;2023-04-24T01:07:02;6.82;;;6.15;;
6937;SDS011;40040;42.706;23.372;2023-04-24T01:09:29;7.55;;;6.70;;
6937;SDS011;40040;42.706;23.372;2023-04-24T01:11:56;11.07;;;7.18;;
6937;SDS011;40040;42.706;23.372;2023-04-24T01:14:24;9.52;;;6.65;;
6937;SDS011;40040;42.706;23.372;2023-04-24T01:16:51;6.78;;;6.07;;
6937;SDS011;40040;42.706;23.372;2023-04-24T01:19:17;8.15;;;6.53;;
6937;SDS011;40040;42.706;23.372;2023-04-24T01:21:46;8.23;;;6.50;;
6937;SDS011;40040;42.706;23.372;2023-04-24T01:24:18;10.10;;;7.03;;
6937;SDS011;40040;42.706;23.372;2023-04-24T01:26:45;6.80;;;6.10;;
6937;SDS011;40040;42.706;23.372;2023-04-24T01:29:12;6.97;;;6.22;;
6937;SDS011;40040;42.706;23.372;2023-04-24T01:31:39;7.78;;;6.18;;
6937;SDS011;40040;42.706;23.372;2023-04-24T01:34:06;10.65;;;6.65;;
6937;SDS011;40040;42.706;23.372;2023-04-24T01:36:34;9.43;;;6.90;;
6937;SDS011;40040;42.706;23.372;2023-04-24T01:39:01;8.15;;;6.70;;
6937;SDS011;40040;42.706;23.372;2023-04-24T01:41:30;10.48;;;7.05;;
6937;SDS011;40040;42.706;23.372;2023-04-24T01:43:57;9.48;;;6.90;;
6937;SDS011;40040;42.706;23.372;2023-04-24T01:46:24;11.95;;;7.63;;
6937;SDS011;40040;42.706;23.372;2023-04-24T01:48:52;8.63;;;7.72;;
6937;SDS011;40040;42.706;23.372;2023-04-24T01:51:20;10.13;;;8.00;;
6937;SDS011;40040;42.706;23.372;2023-04-24T01:53:46;13.27;;;7.95;;
6937;SDS011;40040;42.706;23.372;2023-04-24T01:56:13;9.55;;;8.00;;
6937;SDS011;40040;42.706;23.372;2023-04-24T01:58:42;10.15;;;7.70;;
6937;SDS011;40040;42.706;23.372;2023-04-24T02:01:10;11.25;;;7.50;;
6937;SDS011;40040;42.706;23.372;2023-04-24T02:03:41;8.55;;;7.00;;
6937;SDS011;40040;42.706;23.372;2023-04-24T02:06:08;8.57;;;7.10;;
6937;SDS011;40040;42.706;23.372;2023-04-24T02:08:35;12.55;;;8.27;;
6937;SDS011;40040;42.706;23.372;2023-04-24T02:11:01;10.93;;;7.70;;
6937;SDS011;40040;42.706;23.372;2023-04-24T02:13:28;8.98;;;7.75;;
6937;SDS011;40040;42.706;23.372;2023-04-24T02:15:56;11.60;;;6.90;;
6937;SDS011;40040;42.706;23.372;2023-04-24T02:18:24;10.48;;;7.32;;
6937;SDS011;40040;42.706;23.372;2023-04-24T02:20:51;10.27;;;7.20;;
6937;SDS011;40040;42.706;23.372;2023-04-24T02:23:18;12.65;;;7.38;;
6937;SDS011;40040;42.706;23.372;2023-04-24T02:25:44;8.45;;;6.80;;
6937;SDS011;40040;42.706;23.372;2023-04-24T02:28:12;11.85;;;7.28;;
6937;SDS011;40040;42.706;23.372;2023-04-24T02:30:39;11.77;;;7.72;;
6937;SDS011;40040;42.706;23.372;2023-04-24T02:33:07;11.38;;;7.95;;
6937;SDS011;40040;42.706;23.372;2023-04-24T02:35:33;9.82;;;7.50;;
6937;SDS011;40040;42.706;23.372;2023-04-24T02:38:01;10.05;;;8.18;;
6937;SDS011;40040;42.706;23.372;2023-04-24T02:40:28;10.02;;;7.60;;
6937;SDS011;40040;42.706;23.372;2023-04-24T02:42:55;13.68;;;8.23;;
6937;SDS011;40040;42.706;23.372;2023-04-24T02:45:22;10.27;;;7.30;;
6937;SDS011;40040;42.706;23.372;2023-04-24T02:47:49;10.35;;;7.72;;
6937;SDS011;40040;42.706;23.372;2023-04-24T02:50:17;12.10;;;8.07;;
6937;SDS011;40040;42.706;23.372;2023-04-24T02:52:43;11.00;;;7.20;;
6937;SDS011;40040;42.706;23.372;2023-04-24T02:55:10;8.80;;;6.85;;
6937;SDS011;40040;42.706;23.372;2023-04-24T02:57:37;10.63;;;7.20;;
6937;SDS011;40040;42.706;23.372;2023-04-24T03:00:05;10.77;;;7.50;;
6937;SDS011;40040;42.706;23.372;2023-04-24T03:02:34;10.52;;;8.13;;
6937;SDS011;40040;42.706;23.372;2023-04-24T03:05:00;11.20;;;8.02;;
6937;SDS011;40040;42.706;23.372;2023-04-24T03:07:29;11.65;;;7.82;;
6937;SDS011;40040;42.706;23.372;2023-04-24T03:09:57;8.90;;;7.80;;
6937;SDS011;40040;42.706;23.372;2023-04-24T03:12:24;9.45;;;8.07;;
6937;SDS011;40040;42.706;23.372;2023-04-24T03:14:51;11.25;;;8.50;;
6937;SDS011;40040;42.706;23.372;2023-04-24T03:17:17;11.52;;;8.15;;
6937;SDS011;40040;42.706;23.372;2023-04-24T03:19:44;13.70;;;8.20;;
6937;SDS011;40040;42.706;23.372;2023-04-24T03:22:11;9.35;;;8.20;;
6937;SDS011;40040;42.706;23.372;2023-04-24T03:24:40;12.48;;;8.30;;
6937;SDS011;40040;42.706;23.372;2023-04-24T03:27:06;10.55;;;8.77;;
6937;SDS011;40040;42.706;23.372;2023-04-24T03:29:33;15.95;;;9.48;;
6937;SDS011;40040;42.706;23.372;2023-04-24T03:32:00;12.52;;;9.30;;
6937;SDS011;40040;42.706;23.372;2023-04-24T03:34:27;14.13;;;8.75;;
6937;SDS011;40040;42.706;23.372;2023-04-24T03:36:53;17.85;;;9.48;;
6937;SDS011;40040;42.706;23.372;2023-04-24T03:39:20;13.63;;;9.27;;
6937;SDS011;40040;42.706;23.372;2023-04-24T03:41:48;15.18;;;9.43;;
6937;SDS011;40040;42.706;23.372;2023-04-24T03:44:15;15.30;;;8.95;;
6937;SDS011;40040;42.706;23.372;2023-04-24T03:46:42;12.25;;;8.88;;
6937;SDS011;40040;42.706;23.372;2023-04-24T03:49:09;12.50;;;8.73;;
6937;SDS011;40040;42.706;23.372;2023-04-24T03:51:35;13.13;;;8.02;;
6937;SDS011;40040;42.706;23.372;2023-04-24T03:54:02;15.13;;;8.80;;
6937;SDS011;40040;42.706;23.372;2023-04-24T03:56:29;12.65;;;9.13;;
6937;SDS011;40040;42.706;23.372;2023-04-24T03:58:57;13.55;;;9.18;;
6937;SDS011;40040;42.706;23.372;2023-04-24T04:01:24;15.38;;;9.75;;
6937;SDS011;40040;42.706;23.372;2023-04-24T04:03:51;16.33;;;10.48;;
6937;SDS011;40040;42.706;23.372;2023-04-24T04:06:17;12.75;;;9.98;;
6937;SDS011;40040;42.706;23.372;2023-04-24T04:08:44;15.90;;;10.25;;
6937;SDS011;40040;42.706;23.372;2023-04-24T04:11:11;21.08;;;10.38;;
6937;SDS011;40040;42.706;23.372;2023-04-24T04:13:38;15.63;;;10.68;;
6937;SDS011;40040;42.706;23.372;2023-04-24T04:16:06;18.48;;;10.98;;
6937;SDS011;40040;42.706;23.372;2023-04-24T04:18:35;14.70;;;10.02;;
6937;SDS011;40040;42.706;23.372;2023-04-24T04:21:02;18.42;;;10.43;;
6937;SDS011;40040;42.706;23.372;2023-04-24T04:23:29;23.23;;;13.98;;
6937;SDS011;40040;42.706;23.372;2023-04-24T04:25:57;24.17;;;14.80;;
6937;SDS011;40040;42.706;23.372;2023-04-24T04:28:23;27.33;;;17.52;;
6937;SDS011;40040;42.706;23.372;2023-04-24T04:30:51;26.73;;;15.35;;
6937;SDS011;40040;42.706;23.372;2023-04-24T04:33:20;24.65;;;15.65;;
6937;SDS011;40040;42.706;23.372;2023-04-24T04:35:47;22.70;;;13.15;;
6937;SDS011;40040;42.706;23.372;2023-04-24T04:38:14;16.73;;;12.93;;
6937;SDS011;40040;42.706;23.372;2023-04-24T04:40:41;16.52;;;11.52;;
6937;SDS011;40040;42.706;23.372;2023-04-24T04:43:08;17.02;;;11.70;;
6937;SDS011;40040;42.706;23.372;2023-04-24T04:45:35;17.35;;;11.63;;
6937;SDS011;40040;42.706;23.372;2023-04-24T04:48:04;15.13;;;11.05;;
6937;SDS011;40040;42.706;23.372;2023-04-24T04:50:34;14.73;;;9.88;;
6937;SDS011;40040;42.706;23.372;2023-04-24T04:53:01;15.65;;;10.57;;
6937;SDS011;40040;42.706;23.372;2023-04-24T04:55:27;22.98;;;10.95;;
6937;SDS011;40040;42.706;23.372;2023-04-24T04:57:55;13.50;;;10.40;;
6937;SDS011;40040;42.706;23.372;2023-04-24T05:00:22;21.00;;;10.50;;
6937;SDS011;40040;42.706;23.372;2023-04-24T05:02:50;15.90;;;10.52;;
6937;SDS011;40040;42.706;23.372;2023-04-24T05:05:17;13.35;;;10.07;;
6937;SDS011;40040;42.706;23.372;2023-04-24T05:07:45;19.45;;;11.57;;
6937;SDS011;40040;42.706;23.372;2023-04-24T05:10:12;22.05;;;12.65;;
6937;SDS011;40040;42.706;23.372;2023-04-24T05:12:39;22.42;;;11.85;;
6937;SDS011;40040;42.706;23.372;2023-04-24T05:15:06;19.50;;;11.55;;
6937;SDS011;40040;42.706;23.372;2023-04-24T05:17:33;18.25;;;12.30;;
6937;SDS011;40040;42.706;23.372;2023-04-24T05:20:00;19.20;;;11.38;;
6937;SDS011;40040;42.706;23.372;2023-04-24T05:22:28;16.30;;;10.18;;
6937;SDS011;40040;42.706;23.372;2023-04-24T05:24:56;16.48;;;10.95;;
6937;SDS011;40040;42.706;23.372;2023-04-24T05:27:22;18.00;;;10.63;;
6937;SDS011;40040;42.706;23.372;2023-04-24T05:29:50;18.92;;;11.85;;
6937;SDS011;40040;42.706;23.372;2023-04-24T05:32:17;14.77;;;9.88;;
6937;SDS011;40040;42.706;23.372;2023-04-24T05:34:44;11.27;;;8.68;;
6937;SDS011;40040;42.706;23.372;2023-04-24T05:37:10;14.20;;;9.38;;
6937;SDS011;40040;42.706;23.372;2023-04-24T05:39:37;14.00;;;9.07;;
6937;SDS011;40040;42.706;23.372;2023-04-24T05:42:06;8.80;;;7.85;;
6937;SDS011;40040;42.706;23.372;2023-04-24T05:44:33;8.95;;;7.57;;
6937;SDS011;40040;42.706;23.372;2023-04-24T05:46:59;12.55;;;8.70;;
6937;SDS011;40040;42.706;23.372;2023-04-24T05:49:27;15.32;;;8.70;;
6937;SDS011;40040;42.706;23.372;2023-04-24T05:51:53;13.45;;;8.73;;
6937;SDS011;40040;42.706;23.372;2023-04-24T05:54:20;12.55;;;9.02;;
6937;SDS011;40040;42.706;23.372;2023-04-24T05:56:47;14.65;;;9.25;;
6937;SDS011;40040;42.706;23.372;2023-04-24T05:59:16;12.57;;;8.85;;
6937;SDS011;40040;42.706;23.372;2023-04-24T06:01:56;12.43;;;8.52;;
6937;SDS011;40040;42.706;23.372;2023-04-24T06:04:31;15.55;;;8.98;;
6937;SDS011;40040;42.706;23.372;2023-04-24T06:06:58;12.80;;;9.18;;
6937;SDS011;40040;42.706;23.372;2023-04-24T06:09:25;14.85;;;9.68;;
6937;SDS011;40040;42.706;23.372;2023-04-24T06:11:54;12.10;;;9.27;;
6937;SDS011;40040;42.706;23.372;2023-04-24T06:14:23;15.93;;;8.93;;
6937;SDS011;40040;42.706;23.372;2023-04-24T06:16:49;15.65;;;9.10;;
6937;SDS011;40040;42.706;23.372;2023-04-24T06:19:16;13.50;;;9.40;;
6937;SDS011;40040;42.706;23.372;2023-04-24T06:21:43;12.68;;;9.30;;
6937;SDS011;40040;42.706;23.372;2023-04-24T06:24:10;14.18;;;9.32;;
6937;SDS011;40040;42.706;23.372;2023-04-24T06:26:37;11.68;;;8.80;;
6937;SDS011;40040;42.706;23.372;2023-04-24T06:29:03;12.25;;;8.80;;
6937;SDS011;40040;42.706;23.372;2023-04-24T06:31:32;16.10;;;9.05;;
6937;SDS011;40040;42.706;23.372;2023-04-24T06:34:01;12.85;;;9.05;;
6937;SDS011;40040;42.706;23.372;2023-04-24T06:36:28;11.60;;;9.13;;
6937;SDS011;40040;42.706;23.372;2023-04-24T06:38:56;11.40;;;8.98;;
6937;SDS011;40040;42.706;23.372;2023-04-24T06:41:23;9.52;;;8.38;;
6937;SDS011;40040;42.706;23.372;2023-04-24T06:43:51;27.55;;;15.75;;
6937;SDS011;40040;42.706;23.372;2023-04-24T06:46:17;15.80;;;9.02;;
6937;SDS011;40040;42.706;23.372;2023-04-24T06:48:48;10.15;;;8.70;;
6937;SDS011;40040;42.706;23.372;2023-04-24T06:51:15;13.27;;;9.15;;
6937;SDS011;40040;42.706;23.372;2023-04-24T06:53:43;11.95;;;8.80;;
6937;SDS011;40040;42.706;23.372;2023-04-24T06:56:10;12.25;;;9.38;;
6937;SDS011;40040;42.706;23.372;2023-04-24T06:58:37;10.95;;;8.98;;
6937;SDS011;40040;42.706;23.372;2023-04-24T07:01:03;10.27;;;8.95;;
6937;SDS011;40040;42.706;23.372;2023-04-24T07:03:30;11.02;;;8.82;;
6937;SDS011;40040;42.706;23.372;2023-04-24T07:05:58;15.70;;;8.70;;
6937;SDS011;40040;42.706;23.372;2023-04-24T07:08:25;12.30;;;9.32;;
6937;SDS011;40040;42.706;23.372;2023-04-24T07:10:52;17.23;;;9.73;;
6937;SDS011;40040;42.706;23.372;2023-04-24T07:13:19;13.70;;;9.38;;
6937;SDS011;40040;42.706;23.372;2023-04-24T07:15:46;16.45;;;9.50;;
6937;SDS011;40040;42.706;23.372;2023-04-24T07:18:15;13.50;;;9.25;;
6937;SDS011;40040;42.706;23.372;2023-04-24T07:20:42;15.80;;;9.93;;
6937;SDS011;40040;42.706;23.372;2023-04-24T07:23:10;13.52;;;9.77;;
6937;SDS011;40040;42.706;23.372;2023-04-24T07:25:37;13.80;;;9.30;;
6937;SDS011;40040;42.706;23.372;2023-04-24T07:28:04;11.00;;;9.70;;
6937;SDS011;40040;42.706;23.372;2023-04-24T07:30:31;11.20;;;9.52;;
6937;SDS011;40040;42.706;23.372;2023-04-24T07:32:59;16.40;;;10.20;;
6937;SDS011;40040;42.706;23.372;2023-04-24T07:35:26;14.35;;;10.27;;
6937;SDS011;40040;42.706;23.372;2023-04-24T07:37:53;12.65;;;10.02;;
6937;SDS011;40040;42.706;23.372;2023-04-24T07:40:21;14.68;;;9.73;;
6937;SDS011;40040;42.706;23.372;2023-04-24T07:42:48;15.10;;;9.95;;
6937;SDS011;40040;42.706;23.372;2023-04-24T07:45:15;15.10;;;9.73;;
6937;SDS011;40040;42.706;23.372;2023-04-24T07:47:42;11.68;;;9.50;;
6937;SDS011;40040;42.706;23.372;2023-04-24T07:50:10;11.35;;;9.57;;
6937;SDS011;40040;42.706;23.372;2023-04-24T07:52:38;12.40;;;9.77;;
6937;SDS011;40040;42.706;23.372;2023-04-24T07:55:05;9.68;;;8.60;;
6937;SDS011;40040;42.706;23.372;2023-04-24T07:57:33;11.73;;;8.63;;
6937;SDS011;40040;42.706;23.372;2023-04-24T08:00:00;12.18;;;8.57;;
6937;SDS011;40040;42.706;23.372;2023-04-24T08:02:28;10.07;;;8.52;;
6937;SDS011;40040;42.706;23.372;2023-04-24T08:04:55;10.23;;;8.35;;
6937;SDS011;40040;42.706;23.372;2023-04-24T08:07:22;9.40;;;8.48;;
6937;SDS011;40040;42.706;23.372;2023-04-24T08:09:49;10.20;;;8.73;;
6937;SDS011;40040;42.706;23.372;2023-04-24T08:12:16;11.15;;;7.57;;
6937;SDS011;40040;42.706;23.372;2023-04-24T08:14:44;10.18;;;8.63;;
6937;SDS011;40040;42.706;23.372;2023-04-24T08:17:11;11.80;;;8.18;;
6937;SDS011;40040;42.706;23.372;2023-04-24T08:19:39;12.75;;;8.32;;
6937;SDS011;40040;42.706;23.372;2023-04-24T08:22:08;9.10;;;8.05;;
6937;SDS011;40040;42.706;23.372;2023-04-24T08:24:35;10.00;;;7.75;;
6937;SDS011;40040;42.706;23.372;2023-04-24T08:27:02;9.75;;;8.10;;
6937;SDS011;40040;42.706;23.372;2023-04-24T08:29:29;15.18;;;8.23;;
6937;SDS011;40040;42.706;23.372;2023-04-24T08:31:57;8.68;;;7.88;;
6937;SDS011;40040;42.706;23.372;2023-04-24T08:34:24;12.07;;;8.05;;
6937;SDS011;40040;42.706;23.372;2023-04-24T08:36:50;9.75;;;7.60;;
6937;SDS011;40040;42.706;23.372;2023-04-24T08:39:19;9.20;;;7.20;;
6937;SDS011;40040;42.706;23.372;2023-04-24T08:41:46;10.07;;;7.15;;
6937;SDS011;40040;42.706;23.372;2023-04-24T08:44:15;10.35;;;7.15;;
6937;SDS011;40040;42.706;23.372;2023-04-24T08:46:42;8.05;;;7.10;;
6937;SDS011;40040;42.706;23.372;2023-04-24T08:49:12;7.82;;;7.13;;
6937;SDS011;40040;42.706;23.372;2023-04-24T08:51:44;8.15;;;7.35;;
6937;SDS011;40040;42.706;23.372;2023-04-24T08:54:12;8.25;;;7.40;;
6937;SDS011;40040;42.706;23.372;2023-04-24T08:56:39;7.90;;;7.18;;
6937;SDS011;40040;42.706;23.372;2023-04-24T08:59:09;9.82;;;7.13;;
6937;SDS011;40040;42.706;23.372;2023-04-24T09:01:37;10.43;;;7.30;;
6937;SDS011;40040;42.706;23.372;2023-04-24T09:04:05;7.28;;;6.68;;
6937;SDS011;40040;42.706;23.372;2023-04-24T09:06:35;7.60;;;6.90;;
6937;SDS011;40040;42.706;23.372;2023-04-24T09:09:02;8.07;;;6.85;;
6937;SDS011;40040;42.706;23.372;2023-04-24T09:11:30;8.98;;;7.15;;
6937;SDS011;40040;42.706;23.372;2023-04-24T09:13:57;8.38;;;7.45;;
6937;SDS011;40040;42.706;23.372;2023-04-24T09:16:25;8.18;;;7.38;;
6937;SDS011;40040;42.706;23.372;2023-04-24T09:18:52;7.57;;;6.95;;
6937;SDS011;40040;42.706;23.372;2023-04-24T09:21:20;9.65;;;7.03;;
6937;SDS011;40040;42.706;23.372;2023-04-24T09:23:49;6.95;;;6.35;;
6937;SDS011;40040;42.706;23.372;2023-04-24T09:26:24;7.20;;;6.60;;
6937;SDS011;40040;42.706;23.372;2023-04-24T09:28:51;8.75;;;7.30;;
6937;SDS011;40040;42.706;23.372;2023-04-24T09:31:18;7.82;;;6.90;;
6937;SDS011;40040;42.706;23.372;2023-04-24T09:33:53;7.45;;;6.70;;
6937;SDS011;40040;42.706;23.372;2023-04-24T09:36:26;7.85;;;7.03;;
6937;SDS011;40040;42.706;23.372;2023-04-24T09:38:55;8.95;;;7.47;;
6937;SDS011;40040;42.706;23.372;2023-04-24T09:41:24;7.57;;;6.88;;
6937;SDS011;40040;42.706;23.372;2023-04-24T09:43:53;7.45;;;6.82;;
6937;SDS011;40040;42.706;23.372;2023-04-24T09:46:20;7.40;;;6.68;;
6937;SDS011;40040;42.706;23.372;2023-04-24T09:48:47;7.47;;;6.63;;
6937;SDS011;40040;42.706;23.372;2023-04-24T09:51:14;7.63;;;6.90;;
6937;SDS011;40040;42.706;23.372;2023-04-24T09:53:45;9.43;;;6.85;;
6937;SDS011;40040;42.706;23.372;2023-04-24T09:56:13;7.85;;;7.10;;
6937;SDS011;40040;42.706;23.372;2023-04-24T09:58:40;8.00;;;7.30;;
6937;SDS011;40040;42.706;23.372;2023-04-24T10:01:07;7.28;;;6.68;;
6937;SDS011;40040;42.706;23.372;2023-04-24T10:03:35;10.73;;;6.75;;
6937;SDS011;40040;42.706;23.372;2023-04-24T10:06:02;21.95;;;16.77;;
6937;SDS011;40040;42.706;23.372;2023-04-24T10:08:34;8.27;;;7.45;;
6937;SDS011;40040;42.706;23.372;2023-04-24T10:11:01;9.30;;;6.38;;
6937;SDS011;40040;42.706;23.372;2023-04-24T10:13:30;8.82;;;7.00;;
6937;SDS011;40040;42.706;23.372;2023-04-24T10:15:57;8.18;;;6.80;;
6937;SDS011;40040;42.706;23.372;2023-04-24T10:18:26;6.78;;;6.18;;
6937;SDS011;40040;42.706;23.372;2023-04-24T10:20:53;6.70;;;6.10;;
6937;SDS011;40040;42.706;23.372;2023-04-24T10:23:21;8.68;;;6.28;;
6937;SDS011;40040;42.706;23.372;2023-04-24T10:25:48;6.88;;;6.25;;
6937;SDS011;40040;42.706;23.372;2023-04-24T10:28:17;8.93;;;6.50;;
6937;SDS011;40040;42.706;23.372;2023-04-24T10:30:46;11.05;;;8.55;;
6937;SDS011;40040;42.706;23.372;2023-04-24T10:33:15;7.65;;;6.85;;
6937;SDS011;40040;42.706;23.372;2023-04-24T10:35:44;7.50;;;6.75;;
6937;SDS011;40040;42.706;23.372;2023-04-24T10:38:15;7.35;;;6.65;;
6937;SDS011;40040;42.706;23.372;2023-04-24T10:40:49;7.13;;;6.50;;
6937;SDS011;40040;42.706;23.372;2023-04-24T10:43:16;6.97;;;6.38;;
6937;SDS011;40040;42.706;23.372;2023-04-24T10:48:42;8.15;;;6.38;;
6937;SDS011;40040;42.706;23.372;2023-04-24T10:51:18;6.85;;;6.15;;
6937;SDS011;40040;42.706;23.372;2023-04-24T10:53:49;6.82;;;6.13;;
6937;SDS011;40040;42.706;23.372;2023-04-24T10:56:16;9.00;;;6.90;;
6937;SDS011;40040;42.706;23.372;2023-04-24T10:58:44;6.88;;;6.35;;
6937;SDS011;40040;42.706;23.372;2023-04-24T11:01:22;9.93;;;8.02;;
6937;SDS011;40040;42.706;23.372;2023-04-24T11:03:54;9.07;;;6.30;;
6937;SDS011;40040;42.706;23.372;2023-04-24T11:06:28;8.68;;;7.22;;
6937;SDS011;40040;42.706;23.372;2023-04-24T11:08:59;7.78;;;6.80;;
6937;SDS011;40040;42.706;23.372;2023-04-24T11:11:30;7.13;;;6.53;;
6937;SDS011;40040;42.706;23.372;2023-04-24T11:14:00;7.28;;;6.35;;
6937;SDS011;40040;42.706;23.372;2023-04-24T11:16:33;7.75;;;6.65;;
6937;SDS011;40040;42.706;23.372;2023-04-24T11:19:08;10.20;;;6.63;;
6937;SDS011;40040;42.706;23.372;2023-04-24T11:21:41;7.25;;;6.60;;
6937;SDS011;40040;42.706;23.372;2023-04-24T11:24:24;7.47;;;6.78;;
6937;SDS011;40040;42.706;23.372;2023-04-24T11:26:56;7.15;;;6.60;;
6937;SDS011;40040;42.706;23.372;2023-04-24T11:29:38;11.60;;;7.13;;
6937;SDS011;40040;42.706;23.372;2023-04-24T11:32:25;9.30;;;6.82;;
6937;SDS011;40040;42.706;23.372;2023-04-24T11:34:55;8.65;;;6.25;;
6937;SDS011;40040;42.706;23.372;2023-04-24T11:37:24;9.77;;;6.80;;
6937;SDS011;40040;42.706;23.372;2023-04-24T11:39:53;7.72;;;6.88;;
6937;SDS011;40040;42.706;23.372;2023-04-24T11:42:21;7.97;;;7.25;;
6937;SDS011;40040;42.706;23.372;2023-04-24T11:44:49;8.98;;;6.40;;
6937;SDS011;40040;42.706;23.372;2023-04-24T11:47:16;7.22;;;6.53;;
6937;SDS011;40040;42.706;23.372;2023-04-24T11:49:43;7.20;;;6.50;;
6937;SDS011;40040;42.706;23.372;2023-04-24T11:52:11;7.40;;;6.65;;
6937;SDS011;40040;42.706;23.372;2023-04-24T11:54:46;6.75;;;6.05;;
6937;SDS011;40040;42.706;23.372;2023-04-24T11:57:13;6.22;;;5.63;;
6937;SDS011;40040;42.706;23.372;2023-04-24T11:59:40;6.65;;;5.20;;
6937;SDS011;40040;42.706;23.372;2023-04-24T12:02:07;6.80;;;6.10;;
6937;SDS011;40040;42.706;23.372;2023-04-24T12:04:40;6.70;;;6.10;;
6937;SDS011;40040;42.706;23.372;2023-04-24T12:07:07;7.50;;;6.00;;
6937;SDS011;40040;42.706;23.372;2023-04-24T12:09:43;6.90;;;5.65;;
6937;SDS011;40040;42.706;23.372;2023-04-24T12:12:11;5.45;;;5.05;;
6937;SDS011;40040;42.706;23.372;2023-04-24T12:14:42;4.97;;;4.68;;
6937;SDS011;40040;42.706;23.372;2023-04-24T12:17:14;4.60;;;3.95;;
6937;SDS011;40040;42.706;23.372;2023-04-24T12:19:44;5.80;;;5.30;;
6937;SDS011;40040;42.706;23.372;2023-04-24T12:22:12;5.47;;;4.97;;
6937;SDS011;40040;42.706;23.372;2023-04-24T12:27:29;6.43;;;5.80;;
6937;SDS011;40040;42.706;23.372;2023-04-24T12:29:57;5.80;;;5.40;;
6937;SDS011;40040;42.706;23.372;2023-04-24T12:32:25;6.53;;;5.80;;
6937;SDS011;40040;42.706;23.372;2023-04-24T12:34:52;8.73;;;6.00;;
6937;SDS011;40040;42.706;23.372;2023-04-24T12:37:20;6.32;;;5.72;;
6937;SDS011;40040;42.706;23.372;2023-04-24T12:40:00;5.75;;;5.25;;
6937;SDS011;40040;42.706;23.372;2023-04-24T12:42:28;6.95;;;5.40;;
6937;SDS011;40040;42.706;23.372;2023-04-24T12:44:56;5.40;;;4.90;;
6937;SDS011;40040;42.706;23.372;2023-04-24T12:47:25;5.13;;;4.78;;
6937;SDS011;40040;42.706;23.372;2023-04-24T12:49:51;5.32;;;4.88;;
6937;SDS011;40040;42.706;23.372;2023-04-24T12:52:20;6.20;;;4.90;;
6937;SDS011;40040;42.706;23.372;2023-04-24T12:54:47;5.35;;;4.85;;
6937;SDS011;40040;42.706;23.372;2023-04-24T12:57:15;5.05;;;4.65;;
6937;SDS011;40040;42.706;23.372;2023-04-24T12:59:42;5.82;;;5.20;;
6937;SDS011;40040;42.706;23.372;2023-04-24T13:02:09;5.50;;;5.00;;
6937;SDS011;40040;42.706;23.372;2023-04-24T13:04:37;6.22;;;5.63;;
6937;SDS011;40040;42.706;23.372;2023-04-24T13:07:04;6.40;;;5.90;;
6937;SDS011;40040;42.706;23.372;2023-04-24T13:09:31;4.75;;;4.20;;
6937;SDS011;40040;42.706;23.372;2023-04-24T13:12:02;5.70;;;5.22;;
6937;SDS011;40040;42.706;23.372;2023-04-24T13:14:32;6.80;;;6.10;;
6937;SDS011;40040;42.706;23.372;2023-04-24T13:16:59;7.65;;;5.72;;
6937;SDS011;40040;42.706;23.372;2023-04-24T13:19:26;5.80;;;5.20;;
6937;SDS011;40040;42.706;23.372;2023-04-24T13:21:54;7.88;;;6.30;;
6937;SDS011;40040;42.706;23.372;2023-04-24T13:24:21;6.50;;;5.95;;
6937;SDS011;40040;42.706;23.372;2023-04-24T13:26:51;8.00;;;6.00;;
6937;SDS011;40040;42.706;23.372;2023-04-24T13:29:18;5.85;;;5.45;;
6937;SDS011;40040;42.706;23.372;2023-04-24T13:31:47;6.28;;;5.68;;
6937;SDS011;40040;42.706;23.372;2023-04-24T13:34:16;7.00;;;5.63;;
6937;SDS011;40040;42.706;23.372;2023-04-24T13:36:43;8.23;;;5.93;;
6937;SDS011;40040;42.706;23.372;2023-04-24T13:39:11;5.72;;;5.22;;
6937;SDS011;40040;42.706;23.372;2023-04-24T13:41:37;6.05;;;5.45;;
6937;SDS011;40040;42.706;23.372;2023-04-24T13:44:05;10.68;;;5.90;;
6937;SDS011;40040;42.706;23.372;2023-04-24T13:46:32;5.55;;;5.03;;
6937;SDS011;40040;42.706;23.372;2023-04-24T13:49:01;6.00;;;5.50;;
6937;SDS011;40040;42.706;23.372;2023-04-24T13:51:28;5.95;;;5.43;;
6937;SDS011;40040;42.706;23.372;2023-04-24T13:53:55;5.45;;;4.97;;
6937;SDS011;40040;42.706;23.372;2023-04-24T13:56:22;4.85;;;4.10;;
6937;SDS011;40040;42.706;23.372;2023-04-24T13:58:49;4.88;;;4.57;;
6937;SDS011;40040;42.706;23.372;2023-04-24T14:01:19;6.20;;;5.60;;
6937;SDS011;40040;42.706;23.372;2023-04-24T14:03:49;5.25;;;4.85;;
6937;SDS011;40040;42.706;23.372;2023-04-24T14:06:17;5.78;;;5.28;;
6937;SDS011;40040;42.706;23.372;2023-04-24T14:08:51;5.82;;;5.22;;
6937;SDS011;40040;42.706;23.372;2023-04-24T14:11:18;5.28;;;4.78;;
6937;SDS011;40040;42.706;23.372;2023-04-24T14:13:45;5.47;;;4.88;;
6937;SDS011;40040;42.706;23.372;2023-04-24T14:16:15;8.05;;;5.32;;
6937;SDS011;40040;42.706;23.372;2023-04-24T14:18:42;5.57;;;5.18;;
6937;SDS011;40040;42.706;23.372;2023-04-24T14:21:09;6.65;;;5.10;;
6937;SDS011;40040;42.706;23.372;2023-04-24T14:23:37;6.00;;;5.07;;
6937;SDS011;40040;42.706;23.372;2023-04-24T14:26:04;5.90;;;5.40;;
6937;SDS011;40040;42.706;23.372;2023-04-24T14:28:31;5.25;;;4.85;;
6937;SDS011;40040;42.706;23.372;2023-04-24T14:30:58;5.20;;;4.70;;
6937;SDS011;40040;42.706;23.372;2023-04-24T14:33:25;5.40;;;4.97;;
6937;SDS011;40040;42.706;23.372;2023-04-24T14:35:53;5.55;;;5.10;;
6937;SDS011;40040;42.706;23.372;2023-04-24T14:38:21;5.13;;;4.72;;
6937;SDS011;40040;42.706;23.372;2023-04-24T14:40:50;5.63;;;5.03;;
6937;SDS011;40040;42.706;23.372;2023-04-24T14:43:17;5.88;;;5.30;;
6937;SDS011;40040;42.706;23.372;2023-04-24T14:45:43;4.95;;;4.65;;
6937;SDS011;40040;42.706;23.372;2023-04-24T14:48:10;5.07;;;4.57;;
6937;SDS011;40040;42.706;23.372;2023-04-24T14:50:37;6.00;;;4.97;;